sensor_id;sensor_type;location;lat;lon;timestamp;P1;durP1;ratioP1;P2;durP2;ratioP2
72127;SDS011;60000;51.030;7.024;2023-08-08T00:00:58;3.53;;;1.40;;
72127;SDS011;60000;51.030;7.024;2023-08-08T00:03:24;4.32;;;1.67;;
72127;SDS011;60000;51.030;7.024;2023-08-08T00:05:49;4.60;;;1.60;;
72127;SDS011;60000;51.030;7.024;2023-08-08T00:08:15;4.40;;;1.40;;
72127;SDS011;60000;51.030;7.024;2023-08-08T00:10:40;4.03;;;1.40;;
72127;SDS011;60000;51.030;7.024;2023-08-08T00:13:06;4.20;;;1.40;;
72127;SDS011;60000;51.030;7.024;2023-08-08T00:15:31;4.43;;;1.70;;
72127;SDS011;60000;51.030;7.024;2023-08-08T00:17:57;4.57;;;1.20;;
72127;SDS011;60000;51.030;7.024;2023-08-08T00:20:22;5.67;;;1.53;;
72127;SDS011;60000;51.030;7.024;2023-08-08T00:22:48;3.60;;;1.40;;
72127;SDS011;60000;51.030;7.024;2023-08-08T00:25:13;5.13;;;1.40;;
72127;SDS011;60000;51.030;7.024;2023-08-08T00:27:38;4.30;;;1.60;;
72127;SDS011;60000;51.030;7.024;2023-08-08T00:30:07;3.53;;;1.48;;
72127;SDS011;60000;51.030;7.024;2023-08-08T00:32:33;3.63;;;1.40;;
72127;SDS011;60000;51.030;7.024;2023-08-08T00:34:58;4.17;;;1.30;;
72127;SDS011;60000;51.030;7.024;2023-08-08T00:37:24;4.90;;;1.60;;
72127;SDS011;60000;51.030;7.024;2023-08-08T00:39:49;3.77;;;1.43;;
72127;SDS011;60000;51.030;7.024;2023-08-08T00:42:14;3.93;;;1.37;;
72127;SDS011;60000;51.030;7.024;2023-08-08T00:44:40;4.28;;;1.55;;
72127;SDS011;60000;51.030;7.024;2023-08-08T00:47:06;3.37;;;1.40;;
72127;SDS011;60000;51.030;7.024;2023-08-08T00:49:33;4.28;;;1.88;;
72127;SDS011;60000;51.030;7.024;2023-08-08T00:51:59;6.10;;;1.30;;
72127;SDS011;60000;51.030;7.024;2023-08-08T00:54:24;3.88;;;1.20;;
72127;SDS011;60000;51.030;7.024;2023-08-08T00:56:50;4.37;;;1.77;;
72127;SDS011;60000;51.030;7.024;2023-08-08T00:59:15;4.13;;;1.40;;
72127;SDS011;60000;51.030;7.024;2023-08-08T01:01:43;4.93;;;1.70;;
72127;SDS011;60000;51.030;7.024;2023-08-08T01:04:08;5.13;;;1.57;;
72127;SDS011;60000;51.030;7.024;2023-08-08T01:06:37;4.27;;;1.77;;
72127;SDS011;60000;51.030;7.024;2023-08-08T01:09:20;5.10;;;1.70;;
72127;SDS011;60000;51.030;7.024;2023-08-08T01:11:49;4.47;;;1.63;;
72127;SDS011;60000;51.030;7.024;2023-08-08T01:14:16;5.10;;;1.70;;
72127;SDS011;60000;51.030;7.024;2023-08-08T01:16:43;4.40;;;1.58;;
72127;SDS011;60000;51.030;7.024;2023-08-08T01:19:10;5.80;;;1.50;;
72127;SDS011;60000;51.030;7.024;2023-08-08T01:21:40;4.53;;;1.70;;
72127;SDS011;60000;51.030;7.024;2023-08-08T01:26:43;4.55;;;1.48;;
72127;SDS011;60000;51.030;7.024;2023-08-08T01:29:08;4.77;;;1.50;;
72127;SDS011;60000;51.030;7.024;2023-08-08T01:31:33;4.70;;;1.60;;
72127;SDS011;60000;51.030;7.024;2023-08-08T01:33:58;4.70;;;1.50;;
72127;SDS011;60000;51.030;7.024;2023-08-08T01:39:26;4.00;;;1.60;;
72127;SDS011;60000;51.030;7.024;2023-08-08T01:41:54;5.18;;;2.13;;
72127;SDS011;60000;51.030;7.024;2023-08-08T01:44:20;5.60;;;1.98;;
72127;SDS011;60000;51.030;7.024;2023-08-08T01:46:48;6.35;;;2.20;;
72127;SDS011;60000;51.030;7.024;2023-08-08T01:49:13;4.37;;;1.63;;
72127;SDS011;60000;51.030;7.024;2023-08-08T01:51:39;8.07;;;2.10;;
72127;SDS011;60000;51.030;7.024;2023-08-08T01:54:04;4.80;;;2.13;;
72127;SDS011;60000;51.030;7.024;2023-08-08T01:56:29;5.60;;;2.05;;
72127;SDS011;60000;51.030;7.024;2023-08-08T01:58:55;7.00;;;1.63;;
72127;SDS011;60000;51.030;7.024;2023-08-08T02:01:20;6.13;;;2.10;;
72127;SDS011;60000;51.030;7.024;2023-08-08T02:03:45;6.17;;;1.90;;
72127;SDS011;60000;51.030;7.024;2023-08-08T02:06:11;6.27;;;1.97;;
72127;SDS011;60000;51.030;7.024;2023-08-08T02:08:36;4.67;;;1.77;;
72127;SDS011;60000;51.030;7.024;2023-08-08T02:11:01;6.93;;;1.90;;
72127;SDS011;60000;51.030;7.024;2023-08-08T02:13:27;6.37;;;2.20;;
72127;SDS011;60000;51.030;7.024;2023-08-08T02:15:52;4.90;;;1.90;;
72127;SDS011;60000;51.030;7.024;2023-08-08T02:18:18;6.05;;;1.90;;
72127;SDS011;60000;51.030;7.024;2023-08-08T02:20:43;4.90;;;1.70;;
72127;SDS011;60000;51.030;7.024;2023-08-08T02:23:08;5.20;;;1.90;;
72127;SDS011;60000;51.030;7.024;2023-08-08T02:25:34;6.85;;;2.03;;
72127;SDS011;60000;51.030;7.024;2023-08-08T02:27:59;5.68;;;1.88;;
72127;SDS011;60000;51.030;7.024;2023-08-08T02:30:24;6.27;;;1.90;;
72127;SDS011;60000;51.030;7.024;2023-08-08T02:32:50;5.43;;;1.70;;
72127;SDS011;60000;51.030;7.024;2023-08-08T02:35:15;4.33;;;1.80;;
72127;SDS011;60000;51.030;7.024;2023-08-08T02:37:40;6.67;;;1.97;;
72127;SDS011;60000;51.030;7.024;2023-08-08T02:40:06;5.17;;;1.70;;
72127;SDS011;60000;51.030;7.024;2023-08-08T02:42:32;5.20;;;1.75;;
72127;SDS011;60000;51.030;7.024;2023-08-08T02:44:58;6.13;;;1.80;;
72127;SDS011;60000;51.030;7.024;2023-08-08T02:47:23;4.67;;;1.60;;
72127;SDS011;60000;51.030;7.024;2023-08-08T02:49:49;6.22;;;1.77;;
72127;SDS011;60000;51.030;7.024;2023-08-08T02:52:15;5.33;;;1.83;;
72127;SDS011;60000;51.030;7.024;2023-08-08T02:54:40;6.40;;;1.93;;
72127;SDS011;60000;51.030;7.024;2023-08-08T02:57:05;4.70;;;1.87;;
72127;SDS011;60000;51.030;7.024;2023-08-08T02:59:31;5.75;;;1.70;;
72127;SDS011;60000;51.030;7.024;2023-08-08T03:01:56;6.47;;;1.97;;
72127;SDS011;60000;51.030;7.024;2023-08-08T03:04:21;8.80;;;1.80;;
72127;SDS011;60000;51.030;7.024;2023-08-08T03:06:47;5.60;;;1.77;;
72127;SDS011;60000;51.030;7.024;2023-08-08T03:09:12;6.87;;;1.87;;
72127;SDS011;60000;51.030;7.024;2023-08-08T03:11:37;9.23;;;2.13;;
72127;SDS011;60000;51.030;7.024;2023-08-08T03:14:06;7.53;;;1.70;;
72127;SDS011;60000;51.030;7.024;2023-08-08T03:16:31;6.43;;;1.80;;
72127;SDS011;60000;51.030;7.024;2023-08-08T03:18:57;5.90;;;1.80;;
72127;SDS011;60000;51.030;7.024;2023-08-08T03:21:23;4.72;;;1.70;;
72127;SDS011;60000;51.030;7.024;2023-08-08T03:23:48;4.60;;;1.60;;
72127;SDS011;60000;51.030;7.024;2023-08-08T03:26:14;6.27;;;1.80;;
72127;SDS011;60000;51.030;7.024;2023-08-08T03:28:39;7.20;;;1.80;;
72127;SDS011;60000;51.030;7.024;2023-08-08T03:31:04;6.53;;;1.98;;
72127;SDS011;60000;51.030;7.024;2023-08-08T03:33:30;7.63;;;1.93;;
72127;SDS011;60000;51.030;7.024;2023-08-08T03:35:55;7.70;;;1.87;;
72127;SDS011;60000;51.030;7.024;2023-08-08T03:38:20;6.27;;;2.00;;
72127;SDS011;60000;51.030;7.024;2023-08-08T03:40:45;7.33;;;2.10;;
72127;SDS011;60000;51.030;7.024;2023-08-08T03:43:11;5.73;;;1.70;;
72127;SDS011;60000;51.030;7.024;2023-08-08T03:45:36;5.70;;;2.07;;
72127;SDS011;60000;51.030;7.024;2023-08-08T03:48:01;5.93;;;1.70;;
72127;SDS011;60000;51.030;7.024;2023-08-08T03:50:27;6.28;;;2.50;;
72127;SDS011;60000;51.030;7.024;2023-08-08T03:52:52;8.23;;;2.23;;
72127;SDS011;60000;51.030;7.024;2023-08-08T03:55:18;5.53;;;1.90;;
72127;SDS011;60000;51.030;7.024;2023-08-08T03:57:43;5.57;;;1.85;;
72127;SDS011;60000;51.030;7.024;2023-08-08T04:00:09;6.20;;;1.67;;
72127;SDS011;60000;51.030;7.024;2023-08-08T04:02:36;5.82;;;1.90;;
72127;SDS011;60000;51.030;7.024;2023-08-08T04:05:01;4.88;;;1.80;;
72127;SDS011;60000;51.030;7.024;2023-08-08T04:07:26;4.97;;;1.50;;
72127;SDS011;60000;51.030;7.024;2023-08-08T04:09:52;5.83;;;2.00;;
72127;SDS011;60000;51.030;7.024;2023-08-08T04:12:17;5.47;;;1.60;;
72127;SDS011;60000;51.030;7.024;2023-08-08T04:14:42;5.43;;;2.00;;
72127;SDS011;60000;51.030;7.024;2023-08-08T04:17:07;8.33;;;2.00;;
72127;SDS011;60000;51.030;7.024;2023-08-08T04:19:33;6.37;;;1.60;;
72127;SDS011;60000;51.030;7.024;2023-08-08T04:21:58;5.43;;;1.87;;
72127;SDS011;60000;51.030;7.024;2023-08-08T04:24:24;8.73;;;2.20;;
72127;SDS011;60000;51.030;7.024;2023-08-08T04:26:50;5.75;;;1.83;;
72127;SDS011;60000;51.030;7.024;2023-08-08T04:29:15;10.77;;;2.60;;
72127;SDS011;60000;51.030;7.024;2023-08-08T04:31:40;8.90;;;2.80;;
72127;SDS011;60000;51.030;7.024;2023-08-08T04:34:06;6.93;;;2.20;;
72127;SDS011;60000;51.030;7.024;2023-08-08T04:36:31;8.07;;;2.15;;
72127;SDS011;60000;51.030;7.024;2023-08-08T04:38:56;8.10;;;2.37;;
72127;SDS011;60000;51.030;7.024;2023-08-08T04:41:22;5.00;;;2.10;;
72127;SDS011;60000;51.030;7.024;2023-08-08T04:43:47;8.10;;;2.17;;
72127;SDS011;60000;51.030;7.024;2023-08-08T04:46:12;10.67;;;2.10;;
72127;SDS011;60000;51.030;7.024;2023-08-08T04:48:38;6.45;;;2.22;;
72127;SDS011;60000;51.030;7.024;2023-08-08T04:51:04;7.73;;;2.00;;
72127;SDS011;60000;51.030;7.024;2023-08-08T04:53:30;8.23;;;2.13;;
72127;SDS011;60000;51.030;7.024;2023-08-08T04:55:55;7.50;;;1.70;;
72127;SDS011;60000;51.030;7.024;2023-08-08T04:58:21;7.95;;;2.00;;
72127;SDS011;60000;51.030;7.024;2023-08-08T05:00:46;9.77;;;2.30;;
72127;SDS011;60000;51.030;7.024;2023-08-08T05:03:11;9.23;;;2.57;;
72127;SDS011;60000;51.030;7.024;2023-08-08T05:05:37;10.13;;;2.43;;
72127;SDS011;60000;51.030;7.024;2023-08-08T05:08:02;8.07;;;1.93;;
72127;SDS011;60000;51.030;7.024;2023-08-08T05:10:28;8.03;;;2.00;;
72127;SDS011;60000;51.030;7.024;2023-08-08T05:12:53;12.23;;;2.30;;
72127;SDS011;60000;51.030;7.024;2023-08-08T05:15:18;8.53;;;2.50;;
72127;SDS011;60000;51.030;7.024;2023-08-08T05:17:44;7.50;;;2.13;;
72127;SDS011;60000;51.030;7.024;2023-08-08T05:20:09;9.80;;;2.50;;
72127;SDS011;60000;51.030;7.024;2023-08-08T05:22:35;7.28;;;2.25;;
72127;SDS011;60000;51.030;7.024;2023-08-08T05:25:01;10.60;;;2.90;;
72127;SDS011;60000;51.030;7.024;2023-08-08T05:27:26;7.47;;;2.10;;
72127;SDS011;60000;51.030;7.024;2023-08-08T05:29:52;7.20;;;2.20;;
72127;SDS011;60000;51.030;7.024;2023-08-08T05:32:17;8.55;;;2.63;;
72127;SDS011;60000;51.030;7.024;2023-08-08T05:34:42;7.80;;;2.43;;
72127;SDS011;60000;51.030;7.024;2023-08-08T05:37:08;7.97;;;2.10;;
72127;SDS011;60000;51.030;7.024;2023-08-08T05:39:34;7.20;;;2.30;;
72127;SDS011;60000;51.030;7.024;2023-08-08T05:41:59;9.50;;;2.47;;
72127;SDS011;60000;51.030;7.024;2023-08-08T05:44:24;7.80;;;2.30;;
72127;SDS011;60000;51.030;7.024;2023-08-08T05:46:50;8.03;;;2.70;;
72127;SDS011;60000;51.030;7.024;2023-08-08T05:49:15;7.97;;;2.40;;
72127;SDS011;60000;51.030;7.024;2023-08-08T05:51:40;10.30;;;2.50;;
72127;SDS011;60000;51.030;7.024;2023-08-08T05:54:05;8.73;;;2.60;;
72127;SDS011;60000;51.030;7.024;2023-08-08T05:56:37;10.90;;;2.50;;
72127;SDS011;60000;51.030;7.024;2023-08-08T05:59:02;7.60;;;2.50;;
72127;SDS011;60000;51.030;7.024;2023-08-08T06:01:28;9.40;;;2.58;;
72127;SDS011;60000;51.030;7.024;2023-08-08T06:03:54;8.40;;;2.60;;
72127;SDS011;60000;51.030;7.024;2023-08-08T06:06:20;9.07;;;2.70;;
72127;SDS011;60000;51.030;7.024;2023-08-08T06:08:45;8.47;;;2.20;;
72127;SDS011;60000;51.030;7.024;2023-08-08T06:11:10;10.93;;;2.67;;
72127;SDS011;60000;51.030;7.024;2023-08-08T06:13:36;7.33;;;2.47;;
72127;SDS011;60000;51.030;7.024;2023-08-08T06:16:01;7.10;;;2.28;;
72127;SDS011;60000;51.030;7.024;2023-08-08T06:18:31;11.43;;;3.03;;
72127;SDS011;60000;51.030;7.024;2023-08-08T06:20:57;12.87;;;3.53;;
72127;SDS011;60000;51.030;7.024;2023-08-08T06:23:22;9.93;;;3.00;;
72127;SDS011;60000;51.030;7.024;2023-08-08T06:25:47;10.20;;;3.20;;
72127;SDS011;60000;51.030;7.024;2023-08-08T06:28:13;9.10;;;2.97;;
72127;SDS011;60000;51.030;7.024;2023-08-08T06:30:38;10.90;;;3.20;;
72127;SDS011;60000;51.030;7.024;2023-08-08T06:33:03;8.70;;;3.20;;
72127;SDS011;60000;51.030;7.024;2023-08-08T06:35:29;9.77;;;2.80;;
72127;SDS011;60000;51.030;7.024;2023-08-08T06:37:54;12.63;;;2.70;;
72127;SDS011;60000;51.030;7.024;2023-08-08T06:40:19;10.03;;;2.83;;
72127;SDS011;60000;51.030;7.024;2023-08-08T06:42:46;10.95;;;3.00;;
72127;SDS011;60000;51.030;7.024;2023-08-08T06:45:11;10.43;;;2.93;;
72127;SDS011;60000;51.030;7.024;2023-08-08T06:47:36;7.30;;;2.80;;
72127;SDS011;60000;51.030;7.024;2023-08-08T06:50:02;9.67;;;2.83;;
72127;SDS011;60000;51.030;7.024;2023-08-08T06:52:27;8.60;;;2.90;;
72127;SDS011;60000;51.030;7.024;2023-08-08T06:54:52;10.57;;;3.00;;
72127;SDS011;60000;51.030;7.024;2023-08-08T06:57:18;11.60;;;3.50;;
72127;SDS011;60000;51.030;7.024;2023-08-08T06:59:43;12.40;;;3.00;;
72127;SDS011;60000;51.030;7.024;2023-08-08T07:02:08;9.00;;;2.57;;
72127;SDS011;60000;51.030;7.024;2023-08-08T07:04:34;10.63;;;3.20;;
72127;SDS011;60000;51.030;7.024;2023-08-08T07:07:00;10.43;;;3.13;;
72127;SDS011;60000;51.030;7.024;2023-08-08T07:09:25;9.87;;;2.60;;
72127;SDS011;60000;51.030;7.024;2023-08-08T07:11:50;10.73;;;3.00;;
72127;SDS011;60000;51.030;7.024;2023-08-08T07:14:16;10.37;;;3.10;;
72127;SDS011;60000;51.030;7.024;2023-08-08T07:16:41;16.93;;;3.77;;
72127;SDS011;60000;51.030;7.024;2023-08-08T07:19:06;10.90;;;2.97;;
72127;SDS011;60000;51.030;7.024;2023-08-08T07:21:31;13.70;;;3.00;;
72127;SDS011;60000;51.030;7.024;2023-08-08T07:23:57;8.63;;;3.70;;
72127;SDS011;60000;51.030;7.024;2023-08-08T07:26:22;10.13;;;3.00;;
72127;SDS011;60000;51.030;7.024;2023-08-08T07:28:48;9.87;;;3.13;;
72127;SDS011;60000;51.030;7.024;2023-08-08T07:31:13;12.57;;;3.47;;
72127;SDS011;60000;51.030;7.024;2023-08-08T07:33:38;12.32;;;3.58;;
72127;SDS011;60000;51.030;7.024;2023-08-08T07:36:04;10.17;;;3.33;;
72127;SDS011;60000;51.030;7.024;2023-08-08T07:38:29;8.90;;;3.40;;
72127;SDS011;60000;51.030;7.024;2023-08-08T07:40:54;8.13;;;3.00;;
72127;SDS011;60000;51.030;7.024;2023-08-08T07:43:20;9.97;;;3.20;;
72127;SDS011;60000;51.030;7.024;2023-08-08T07:45:45;12.07;;;3.47;;
72127;SDS011;60000;51.030;7.024;2023-08-08T07:48:11;11.40;;;4.07;;
72127;SDS011;60000;51.030;7.024;2023-08-08T07:50:37;9.98;;;3.47;;
72127;SDS011;60000;51.030;7.024;2023-08-08T07:53:02;12.77;;;4.30;;
72127;SDS011;60000;51.030;7.024;2023-08-08T07:55:27;13.53;;;3.60;;
72127;SDS011;60000;51.030;7.024;2023-08-08T07:57:53;9.90;;;3.73;;
72127;SDS011;60000;51.030;7.024;2023-08-08T08:00:18;16.60;;;3.40;;
72127;SDS011;60000;51.030;7.024;2023-08-08T08:02:44;9.63;;;3.77;;
72127;SDS011;60000;51.030;7.024;2023-08-08T08:05:10;11.27;;;3.38;;
72127;SDS011;60000;51.030;7.024;2023-08-08T08:07:36;14.85;;;3.05;;
72127;SDS011;60000;51.030;7.024;2023-08-08T08:10:03;9.52;;;2.83;;
72127;SDS011;60000;51.030;7.024;2023-08-08T08:12:29;11.52;;;3.22;;
72127;SDS011;60000;51.030;7.024;2023-08-08T08:14:56;10.87;;;2.73;;
72127;SDS011;60000;51.030;7.024;2023-08-08T08:17:21;9.05;;;2.80;;
72127;SDS011;60000;51.030;7.024;2023-08-08T08:19:47;8.10;;;2.93;;
72127;SDS011;60000;51.030;7.024;2023-08-08T08:22:12;8.63;;;2.93;;
72127;SDS011;60000;51.030;7.024;2023-08-08T08:24:37;8.13;;;2.70;;
72127;SDS011;60000;51.030;7.024;2023-08-08T08:27:03;9.10;;;3.07;;
72127;SDS011;60000;51.030;7.024;2023-08-08T08:29:28;8.03;;;2.80;;
72127;SDS011;60000;51.030;7.024;2023-08-08T08:31:53;9.57;;;2.80;;
72127;SDS011;60000;51.030;7.024;2023-08-08T08:34:19;10.88;;;3.17;;
72127;SDS011;60000;51.030;7.024;2023-08-08T08:36:44;12.07;;;3.33;;
72127;SDS011;60000;51.030;7.024;2023-08-08T08:39:09;11.13;;;3.17;;
72127;SDS011;60000;51.030;7.024;2023-08-08T08:41:35;10.70;;;3.10;;
72127;SDS011;60000;51.030;7.024;2023-08-08T08:44:04;11.80;;;3.25;;
72127;SDS011;60000;51.030;7.024;2023-08-08T08:46:31;13.70;;;4.18;;
72127;SDS011;60000;51.030;7.024;2023-08-08T08:48:58;13.25;;;3.88;;
72127;SDS011;60000;51.030;7.024;2023-08-08T08:51:24;11.57;;;4.37;;
72127;SDS011;60000;51.030;7.024;2023-08-08T08:53:50;11.70;;;4.35;;
72127;SDS011;60000;51.030;7.024;2023-08-08T08:56:16;12.77;;;4.83;;
72127;SDS011;60000;51.030;7.024;2023-08-08T08:58:42;14.30;;;4.85;;
72127;SDS011;60000;51.030;7.024;2023-08-08T09:01:08;14.68;;;4.97;;
72127;SDS011;60000;51.030;7.024;2023-08-08T09:03:34;13.53;;;5.03;;
72127;SDS011;60000;51.030;7.024;2023-08-08T09:06:00;10.95;;;4.05;;
72127;SDS011;60000;51.030;7.024;2023-08-08T09:08:26;14.30;;;4.90;;
72127;SDS011;60000;51.030;7.024;2023-08-08T09:10:52;11.40;;;4.43;;
72127;SDS011;60000;51.030;7.024;2023-08-08T09:13:17;10.17;;;3.83;;
72127;SDS011;60000;51.030;7.024;2023-08-08T09:15:42;12.80;;;4.43;;
72127;SDS011;60000;51.030;7.024;2023-08-08T09:18:13;10.30;;;4.83;;
72127;SDS011;60000;51.030;7.024;2023-08-08T09:20:39;11.47;;;4.07;;
72127;SDS011;60000;51.030;7.024;2023-08-08T09:23:04;11.50;;;4.03;;
72127;SDS011;60000;51.030;7.024;2023-08-08T09:25:29;8.63;;;3.63;;
72127;SDS011;60000;51.030;7.024;2023-08-08T09:27:55;12.23;;;4.43;;
72127;SDS011;60000;51.030;7.024;2023-08-08T09:30:20;8.70;;;4.07;;
72127;SDS011;60000;51.030;7.024;2023-08-08T09:32:46;14.30;;;4.50;;
72127;SDS011;60000;51.030;7.024;2023-08-08T09:35:11;12.57;;;4.30;;
72127;SDS011;60000;51.030;7.024;2023-08-08T09:37:37;10.17;;;4.03;;
72127;SDS011;60000;51.030;7.024;2023-08-08T09:40:03;11.48;;;4.75;;
72127;SDS011;60000;51.030;7.024;2023-08-08T09:42:32;10.03;;;4.20;;
72127;SDS011;60000;51.030;7.024;2023-08-08T09:44:59;9.63;;;4.20;;
72127;SDS011;60000;51.030;7.024;2023-08-08T09:47:24;8.38;;;3.80;;
72127;SDS011;60000;51.030;7.024;2023-08-08T09:49:55;7.93;;;3.80;;
72127;SDS011;60000;51.030;7.024;2023-08-08T09:52:23;12.60;;;4.97;;
72127;SDS011;60000;51.030;7.024;2023-08-08T09:54:49;8.70;;;4.32;;
72127;SDS011;60000;51.030;7.024;2023-08-08T09:57:15;11.68;;;4.50;;
72127;SDS011;60000;51.030;7.024;2023-08-08T09:59:42;8.07;;;3.85;;
72127;SDS011;60000;51.030;7.024;2023-08-08T10:02:08;8.00;;;3.90;;
72127;SDS011;60000;51.030;7.024;2023-08-08T10:04:39;8.82;;;3.70;;
72127;SDS011;60000;51.030;7.024;2023-08-08T10:07:04;12.40;;;4.30;;
72127;SDS011;60000;51.030;7.024;2023-08-08T10:09:29;13.30;;;4.70;;
72127;SDS011;60000;51.030;7.024;2023-08-08T10:11:55;12.03;;;4.80;;
72127;SDS011;60000;51.030;7.024;2023-08-08T10:14:21;9.57;;;4.23;;
72127;SDS011;60000;51.030;7.024;2023-08-08T10:16:55;11.60;;;4.85;;
72127;SDS011;60000;51.030;7.024;2023-08-08T10:19:21;10.13;;;4.20;;
72127;SDS011;60000;51.030;7.024;2023-08-08T10:21:48;10.43;;;4.43;;
72127;SDS011;60000;51.030;7.024;2023-08-08T10:24:13;8.40;;;3.58;;
72127;SDS011;60000;51.030;7.024;2023-08-08T10:26:55;9.60;;;3.63;;
72127;SDS011;60000;51.030;7.024;2023-08-08T10:29:23;8.38;;;3.67;;
72127;SDS011;60000;51.030;7.024;2023-08-08T10:32:03;8.35;;;3.78;;
72127;SDS011;60000;51.030;7.024;2023-08-08T10:34:36;8.38;;;3.60;;
72127;SDS011;60000;51.030;7.024;2023-08-08T10:37:12;13.30;;;3.85;;
72127;SDS011;60000;51.030;7.024;2023-08-08T10:39:52;7.47;;;3.10;;
72127;SDS011;60000;51.030;7.024;2023-08-08T10:42:19;9.07;;;3.67;;
72127;SDS011;60000;51.030;7.024;2023-08-08T10:44:57;10.10;;;3.40;;
72127;SDS011;60000;51.030;7.024;2023-08-08T10:47:23;9.45;;;3.50;;
72127;SDS011;60000;51.030;7.024;2023-08-08T10:49:57;7.75;;;3.10;;
72127;SDS011;60000;51.030;7.024;2023-08-08T10:55:21;6.85;;;3.20;;
72127;SDS011;60000;51.030;7.024;2023-08-08T10:58:13;8.70;;;3.13;;
72127;SDS011;60000;51.030;7.024;2023-08-08T11:00:40;8.20;;;3.47;;
72127;SDS011;60000;51.030;7.024;2023-08-08T11:03:06;8.83;;;3.30;;
72127;SDS011;60000;51.030;7.024;2023-08-08T11:05:33;8.50;;;3.40;;
72127;SDS011;60000;51.030;7.024;2023-08-08T11:08:02;7.60;;;2.60;;
72127;SDS011;60000;51.030;7.024;2023-08-08T11:10:29;9.25;;;3.00;;
72127;SDS011;60000;51.030;7.024;2023-08-08T11:13:01;7.57;;;3.40;;
72127;SDS011;60000;51.030;7.024;2023-08-08T11:15:34;7.27;;;2.93;;
72127;SDS011;60000;51.030;7.024;2023-08-08T11:18:01;11.75;;;3.50;;
72127;SDS011;60000;51.030;7.024;2023-08-08T11:20:31;10.57;;;3.55;;
72127;SDS011;60000;51.030;7.024;2023-08-08T11:22:58;11.35;;;3.47;;
72127;SDS011;60000;51.030;7.024;2023-08-08T11:25:28;9.88;;;3.70;;
72127;SDS011;60000;51.030;7.024;2023-08-08T11:27:55;9.20;;;2.90;;
72127;SDS011;60000;51.030;7.024;2023-08-08T11:30:22;9.23;;;3.33;;
72127;SDS011;60000;51.030;7.024;2023-08-08T11:32:48;8.55;;;2.90;;
72127;SDS011;60000;51.030;7.024;2023-08-08T11:35:33;7.82;;;3.08;;
72127;SDS011;60000;51.030;7.024;2023-08-08T11:38:01;11.60;;;3.55;;
72127;SDS011;60000;51.030;7.024;2023-08-08T11:40:29;9.17;;;2.97;;
72127;SDS011;60000;51.030;7.024;2023-08-08T11:42:55;6.75;;;2.75;;
72127;SDS011;60000;51.030;7.024;2023-08-08T11:45:22;9.15;;;2.75;;
72127;SDS011;60000;51.030;7.024;2023-08-08T11:47:49;7.07;;;2.38;;
72127;SDS011;60000;51.030;7.024;2023-08-08T11:50:15;11.85;;;2.95;;
72127;SDS011;60000;51.030;7.024;2023-08-08T11:52:42;7.57;;;2.60;;
72127;SDS011;60000;51.030;7.024;2023-08-08T11:55:10;7.88;;;2.80;;
72127;SDS011;60000;51.030;7.024;2023-08-08T11:57:36;8.48;;;2.78;;
72127;SDS011;60000;51.030;7.024;2023-08-08T12:00:03;6.50;;;2.57;;
72127;SDS011;60000;51.030;7.024;2023-08-08T12:02:32;10.75;;;2.95;;
72127;SDS011;60000;51.030;7.024;2023-08-08T12:05:03;6.03;;;2.70;;
72127;SDS011;60000;51.030;7.024;2023-08-08T12:07:33;8.23;;;2.75;;
72127;SDS011;60000;51.030;7.024;2023-08-08T12:09:59;9.80;;;2.50;;
72127;SDS011;60000;51.030;7.024;2023-08-08T12:12:25;8.90;;;2.58;;
72127;SDS011;60000;51.030;7.024;2023-08-08T12:14:53;10.18;;;2.78;;
72127;SDS011;60000;51.030;7.024;2023-08-08T12:17:18;8.43;;;2.40;;
72127;SDS011;60000;51.030;7.024;2023-08-08T12:19:46;8.38;;;2.67;;
72127;SDS011;60000;51.030;7.024;2023-08-08T12:22:12;8.05;;;2.47;;
72127;SDS011;60000;51.030;7.024;2023-08-08T12:24:37;11.40;;;2.30;;
72127;SDS011;60000;51.030;7.024;2023-08-08T12:27:03;7.63;;;2.10;;
72127;SDS011;60000;51.030;7.024;2023-08-08T12:29:28;8.23;;;2.03;;
72127;SDS011;60000;51.030;7.024;2023-08-08T12:31:53;7.83;;;1.90;;
72127;SDS011;60000;51.030;7.024;2023-08-08T12:34:19;7.80;;;2.30;;
72127;SDS011;60000;51.030;7.024;2023-08-08T12:36:44;7.43;;;1.97;;
72127;SDS011;60000;51.030;7.024;2023-08-08T12:39:09;7.87;;;2.23;;
72127;SDS011;60000;51.030;7.024;2023-08-08T12:41:35;7.72;;;2.08;;
72127;SDS011;60000;51.030;7.024;2023-08-08T12:44:01;7.47;;;2.00;;
72127;SDS011;60000;51.030;7.024;2023-08-08T12:46:26;8.27;;;2.50;;
72127;SDS011;60000;51.030;7.024;2023-08-08T12:48:51;10.48;;;2.33;;
72127;SDS011;60000;51.030;7.024;2023-08-08T12:51:20;7.77;;;2.63;;
72127;SDS011;60000;51.030;7.024;2023-08-08T12:53:45;7.13;;;2.33;;
72127;SDS011;60000;51.030;7.024;2023-08-08T12:56:10;8.00;;;3.17;;
72127;SDS011;60000;51.030;7.024;2023-08-08T12:58:36;8.10;;;2.40;;
72127;SDS011;60000;51.030;7.024;2023-08-08T13:01:01;5.63;;;2.63;;
72127;SDS011;60000;51.030;7.024;2023-08-08T13:03:27;5.80;;;2.33;;
72127;SDS011;60000;51.030;7.024;2023-08-08T13:05:52;7.00;;;2.67;;
72127;SDS011;60000;51.030;7.024;2023-08-08T13:08:18;6.83;;;2.33;;
72127;SDS011;60000;51.030;7.024;2023-08-08T13:10:44;5.78;;;2.30;;
72127;SDS011;60000;51.030;7.024;2023-08-08T13:13:10;6.10;;;2.47;;
72127;SDS011;60000;51.030;7.024;2023-08-08T13:15:35;6.82;;;2.20;;
72127;SDS011;60000;51.030;7.024;2023-08-08T13:18:01;5.87;;;2.53;;
72127;SDS011;60000;51.030;7.024;2023-08-08T13:20:26;5.07;;;2.10;;
72127;SDS011;60000;51.030;7.024;2023-08-08T13:22:51;6.23;;;2.20;;
72127;SDS011;60000;51.030;7.024;2023-08-08T13:25:17;6.37;;;2.53;;
72127;SDS011;60000;51.030;7.024;2023-08-08T13:27:44;6.23;;;2.53;;
72127;SDS011;60000;51.030;7.024;2023-08-08T13:30:09;9.48;;;2.88;;
72127;SDS011;60000;51.030;7.024;2023-08-08T13:32:35;6.13;;;2.35;;
72127;SDS011;60000;51.030;7.024;2023-08-08T13:35:01;6.37;;;2.37;;
72127;SDS011;60000;51.030;7.024;2023-08-08T13:37:26;6.93;;;2.53;;
72127;SDS011;60000;51.030;7.024;2023-08-08T13:39:51;5.73;;;2.00;;
72127;SDS011;60000;51.030;7.024;2023-08-08T13:42:17;6.90;;;2.83;;
72127;SDS011;60000;51.030;7.024;2023-08-08T13:44:42;6.60;;;2.40;;
72127;SDS011;60000;51.030;7.024;2023-08-08T13:47:07;6.27;;;2.43;;
72127;SDS011;60000;51.030;7.024;2023-08-08T13:49:33;6.10;;;2.13;;
72127;SDS011;60000;51.030;7.024;2023-08-08T13:51:58;10.00;;;3.00;;
72127;SDS011;60000;51.030;7.024;2023-08-08T13:54:23;6.73;;;2.33;;
72127;SDS011;60000;51.030;7.024;2023-08-08T13:56:49;9.40;;;3.00;;
72127;SDS011;60000;51.030;7.024;2023-08-08T13:59:14;8.90;;;2.87;;
72127;SDS011;60000;51.030;7.024;2023-08-08T14:01:39;10.03;;;2.80;;
72127;SDS011;60000;51.030;7.024;2023-08-08T14:04:04;8.47;;;2.73;;
72127;SDS011;60000;51.030;7.024;2023-08-08T14:06:30;7.30;;;2.58;;
72127;SDS011;60000;51.030;7.024;2023-08-08T14:08:56;6.23;;;2.23;;
72127;SDS011;60000;51.030;7.024;2023-08-08T14:11:21;7.78;;;2.35;;
72127;SDS011;60000;51.030;7.024;2023-08-08T14:13:47;7.37;;;2.03;;
72127;SDS011;60000;51.030;7.024;2023-08-08T14:16:12;7.53;;;1.87;;
72127;SDS011;60000;51.030;7.024;2023-08-08T14:18:37;5.87;;;2.10;;
72127;SDS011;60000;51.030;7.024;2023-08-08T14:21:03;6.13;;;1.83;;
72127;SDS011;60000;51.030;7.024;2023-08-08T14:23:29;7.78;;;2.35;;
72127;SDS011;60000;51.030;7.024;2023-08-08T14:25:55;6.45;;;2.10;;
72127;SDS011;60000;51.030;7.024;2023-08-08T14:28:20;4.93;;;1.70;;
72127;SDS011;60000;51.030;7.024;2023-08-08T14:30:45;8.27;;;2.10;;
72127;SDS011;60000;51.030;7.024;2023-08-08T14:33:13;7.07;;;2.30;;
72127;SDS011;60000;51.030;7.024;2023-08-08T14:35:39;7.13;;;2.35;;
72127;SDS011;60000;51.030;7.024;2023-08-08T14:38:05;6.43;;;2.30;;
72127;SDS011;60000;51.030;7.024;2023-08-08T14:40:30;7.57;;;2.00;;
72127;SDS011;60000;51.030;7.024;2023-08-08T14:42:57;6.32;;;2.03;;
72127;SDS011;60000;51.030;7.024;2023-08-08T14:45:23;8.23;;;1.98;;
72127;SDS011;60000;51.030;7.024;2023-08-08T14:47:49;6.37;;;1.93;;